createdAt,value
2017-10-08T12:41:03.851Z,99311.39
2017-10-08T12:43:31.313Z,99303.93
2017-10-08T12:45:58.776Z,99295.09
2017-10-08T12:48:26.295Z,99310.77
2017-10-08T12:50:53.784Z,99309.90
2017-10-08T12:53:21.244Z,99296.94
2017-10-08T12:55:48.739Z,99314.35
2017-10-08T12:58:16.194Z,99312.28
2017-10-08T13:00:43.666Z,99317.91
2017-10-08T13:03:11.128Z,99308.23
2017-10-08T13:05:38.572Z,99306.67
2017-10-08T13:08:06.033Z,99307.27
2017-10-08T13:10:33.521Z,99309.54
2017-10-08T13:13:00.981Z,99308.31
2017-10-08T13:15:28.447Z,99309.38
2017-10-08T13:17:55.926Z,99303.08
2017-10-08T13:20:23.397Z,99310.20
2017-10-08T13:22:50.887Z,99306.50
2017-10-08T13:25:18.369Z,99313.58
2017-10-08T13:27:45.850Z,99298.11
2017-10-08T13:30:13.369Z,99294.52
2017-10-08T13:32:40.867Z,99300.80
2017-10-08T13:35:08.337Z,99286.16
2017-10-08T13:37:35.793Z,99287.45
2017-10-08T13:40:03.363Z,99295.05
2017-10-08T13:42:30.851Z,99284.80
2017-10-08T13:44:58.313Z,99287.84
2017-10-08T13:47:25.772Z,99287.84
2017-10-08T13:49:53.248Z,99277.21
2017-10-08T13:52:20.731Z,99272.70
2017-10-08T13:54:48.218Z,99281.50
2017-10-08T13:57:15.688Z,99287.80
2017-10-08T13:59:43.171Z,99275.22
2017-10-08T14:02:10.660Z,99273.59
2017-10-08T14:04:38.121Z,99274.23
2017-10-08T14:07:05.585Z,99270.78
2017-10-08T14:09:33.077Z,99280.86
2017-10-08T14:12:00.563Z,99277.96
2017-10-08T14:14:28.028Z,99278.14
2017-10-08T14:16:55.510Z,99286.80
2017-10-08T14:19:22.997Z,99269.94
2017-10-08T14:21:50.464Z,99259.55
2017-10-08T14:24:17.990Z,99256.47
2017-10-08T14:26:45.504Z,99260.03
2017-10-08T14:29:12.969Z,99265.99
2017-10-08T14:31:40.458Z,99265.36
2017-10-08T14:34:07.933Z,99263.23
2017-10-08T14:36:35.427Z,99240.95
2017-10-08T14:39:02.902Z,99245.73
2017-10-08T14:41:30.351Z,99260.17
2017-10-08T14:43:57.805Z,99245.30
2017-10-08T14:46:25.283Z,99262.93
2017-10-08T14:48:52.773Z,99254.17
2017-10-08T14:51:20.248Z,99260.84
2017-10-08T14:53:47.762Z,99248.88
2017-10-08T14:56:15.289Z,99261.87
2017-10-08T14:58:43.695Z,99262.27
2017-10-08T15:01:11.208Z,99265.31
2017-10-08T15:03:38.687Z,99252.35
2017-10-08T15:06:06.165Z,99259.08
2017-10-08T15:08:33.706Z,99249.50
2017-10-08T15:11:01.216Z,99266.31
2017-10-08T15:13:28.813Z,99265.83
2017-10-08T15:15:56.309Z,99271.39
2017-10-08T15:18:23.845Z,99263.39
2017-10-08T15:20:51.320Z,99268.29
2017-10-08T15:23:18.826Z,99274.08
2017-10-08T15:25:46.314Z,99277.69
2017-10-08T15:28:13.810Z,99267.16
2017-10-08T15:30:41.302Z,99277.65
2017-10-08T15:33:08.772Z,99271.65
2017-10-08T15:35:36.222Z,99272.95
2017-10-08T15:38:03.762Z,99278.45
2017-10-08T15:40:31.427Z,99268.02
2017-10-08T15:42:58.888Z,99290.23
2017-10-08T15:45:26.440Z,99285.39
2017-10-08T15:47:53.933Z,99289.58
2017-10-08T15:50:21.433Z,99296.00
2017-10-08T15:52:48.923Z,99304.57
2017-10-08T15:55:16.380Z,99294.41
2017-10-08T15:57:43.864Z,99291.04
2017-10-08T16:00:11.363Z,99295.08
2017-10-08T16:02:38.839Z,99291.48
2017-10-08T16:05:06.324Z,99298.92
2017-10-08T16:07:33.852Z,99308.06
2017-10-08T16:10:01.345Z,99304.75
2017-10-08T16:12:28.824Z,99301.22
2017-10-08T16:14:56.303Z,99308.66
2017-10-08T16:17:23.778Z,99295.41
2017-10-08T16:19:51.232Z,99309.67
2017-10-08T16:22:18.713Z,99307.91
2017-10-08T16:24:46.392Z,99336.59
2017-10-08T16:27:13.858Z,99328.45
2017-10-08T16:29:41.328Z,99321.09
2017-10-08T16:32:08.793Z,99328.34
2017-10-08T16:34:36.269Z,99340.14
2017-10-08T16:37:03.772Z,99334.86
2017-10-08T16:39:31.231Z,99335.19
2017-10-08T16:41:58.742Z,99331.49
2017-10-08T16:44:26.209Z,99335.84
2017-10-08T16:46:53.729Z,99344.08
2017-10-08T16:49:21.224Z,99338.30
2017-10-08T16:51:48.715Z,99339.10
2017-10-08T16:54:16.216Z,99335.92
2017-10-08T16:56:43.712Z,99335.33
2017-10-08T16:59:11.238Z,99345.61
2017-10-08T17:01:38.724Z,99340.02
2017-10-08T17:04:06.204Z,99340.95
2017-10-08T17:06:33.707Z,99346.94
2017-10-08T17:09:01.258Z,99334.48
2017-10-08T17:11:28.715Z,99335.98
2017-10-08T17:13:56.243Z,99346.91
2017-10-08T17:16:23.708Z,99351.61
2017-10-08T17:18:51.178Z,99336.98
2017-10-08T17:21:18.653Z,99339.50
2017-10-08T17:23:46.125Z,99343.55
2017-10-08T17:26:13.585Z,99349.41
2017-10-08T17:28:41.086Z,99341.69
2017-10-08T17:31:08.563Z,99339.92
2017-10-08T17:33:36.097Z,99347.03
2017-10-08T17:36:03.590Z,99348.39
2017-10-08T17:38:31.037Z,99334.88
2017-10-08T17:40:58.506Z,99360.08
2017-10-08T17:43:25.995Z,99348.99
2017-10-08T17:45:53.453Z,99357.59
2017-10-08T17:48:20.965Z,99361.00
2017-10-08T17:50:48.452Z,99363.97
2017-10-08T17:53:15.922Z,99359.27
2017-10-08T17:55:43.570Z,99365.97
2017-10-08T17:58:11.073Z,99358.20
2017-10-08T18:00:38.538Z,99361.02
2017-10-08T18:03:06.014Z,99357.16
2017-10-08T18:05:33.534Z,99355.04
2017-10-08T18:08:01.024Z,99359.17
2017-10-08T18:10:28.513Z,99366.84
2017-10-08T18:12:56.039Z,99368.93
2017-10-08T18:15:23.549Z,99367.00
2017-10-08T18:17:51.046Z,99373.98
2017-10-08T18:20:18.553Z,99365.77
2017-10-08T18:22:46.054Z,99362.98
2017-10-08T18:25:13.561Z,99361.91
2017-10-08T18:27:41.049Z,99368.31
2017-10-08T18:30:08.522Z,99377.75
2017-10-08T18:32:35.987Z,99372.88
2017-10-08T18:35:03.522Z,99375.03
2017-10-08T18:37:31.008Z,99371.68
2017-10-08T18:39:58.657Z,99375.04
2017-10-08T18:42:26.207Z,99375.04
2017-10-08T18:44:53.791Z,99364.34
2017-10-08T18:47:21.557Z,99366.18
2017-10-08T18:49:49.433Z,99361.34
2017-10-08T18:52:17.004Z,99363.98
2017-10-08T18:54:44.555Z,99363.98
2017-10-08T18:57:12.119Z,99383.75
2017-10-08T18:59:39.708Z,99363.06
2017-10-08T19:02:07.382Z,99369.82
2017-10-08T19:04:35.178Z,99372.11
2017-10-08T19:07:02.990Z,99362.24
2017-10-08T19:09:30.839Z,99357.83
2017-10-08T19:11:58.665Z,99376.37
2017-10-08T19:14:26.454Z,99362.24
2017-10-08T19:16:54.278Z,99355.24
2017-10-08T19:19:22.046Z,99367.59
2017-10-08T19:21:49.869Z,99368.28
2017-10-08T19:24:17.914Z,99382.05
2017-10-08T19:26:45.711Z,99365.30
2017-10-08T19:29:13.460Z,99389.17
2017-10-08T19:31:41.232Z,99373.26
2017-10-08T19:34:09.062Z,99385.73
2017-10-08T19:36:36.773Z,99389.02
2017-10-08T19:39:04.444Z,99385.33
2017-10-08T19:41:32.227Z,99399.77
2017-10-08T19:43:59.974Z,99387.45
2017-10-08T19:46:27.532Z,99390.72
2017-10-08T19:48:55.424Z,99386.16
2017-10-08T19:51:23.016Z,99388.15
2017-10-08T19:53:50.562Z,99416.29
2017-10-08T19:56:18.429Z,99402.06
2017-10-08T19:58:46.200Z,99405.25
2017-10-08T20:01:13.994Z,99405.56
2017-10-08T20:03:41.805Z,99413.72
2017-10-08T20:06:09.689Z,99415.34
2017-10-08T20:08:37.493Z,99420.52
2017-10-08T20:11:05.047Z,99426.91
2017-10-08T20:13:32.532Z,99440.56
2017-10-08T20:16:00.021Z,99454.02
2017-10-08T20:18:27.512Z,99467.63
2017-10-08T20:20:54.989Z,99465.76
2017-10-08T20:23:22.492Z,99458.87
2017-10-08T20:25:49.961Z,99470.87
2017-10-08T20:28:17.434Z,99486.59
2017-10-08T20:30:44.922Z,99476.81
2017-10-08T20:33:12.427Z,99476.16
2017-10-08T20:35:39.940Z,99489.23
2017-10-08T20:38:07.417Z,99506.67
2017-10-08T20:40:34.986Z,99508.27
2017-10-08T20:43:02.502Z,99504.19
2017-10-08T20:45:29.996Z,99495.92
2017-10-08T20:47:57.542Z,99497.48
2017-10-08T20:50:25.051Z,99502.11
2017-10-08T20:52:52.549Z,99504.48
2017-10-08T20:55:20.029Z,99494.27
2017-10-08T20:57:47.528Z,99505.37
2017-10-08T21:00:15.003Z,99508.58
2017-10-08T21:02:42.501Z,99507.89
2017-10-08T21:05:10.002Z,99504.59
2017-10-08T21:07:37.476Z,99503.66
2017-10-08T21:10:04.966Z,99509.05
2017-10-08T21:12:32.434Z,99515.90
2017-10-08T21:14:59.917Z,99500.66
2017-10-08T21:17:27.433Z,99511.33
2017-10-08T21:19:54.922Z,99518.09
2017-10-08T21:22:22.406Z,99510.16
2017-10-08T21:24:50.007Z,99509.67
2017-10-08T21:27:17.486Z,99505.02
2017-10-08T21:29:44.951Z,99508.38
2017-10-08T21:32:12.430Z,99500.64
2017-10-08T21:34:39.903Z,99508.05
2017-10-08T21:37:07.374Z,99500.63
2017-10-08T21:39:34.868Z,99503.56
2017-10-08T21:42:02.365Z,99502.58
2017-10-08T21:44:29.855Z,99500.53
2017-10-08T21:46:57.327Z,99505.34
2017-10-08T21:49:24.810Z,99497.02
2017-10-08T21:51:52.324Z,99497.50
2017-10-08T21:54:19.805Z,99499.70
2017-10-08T21:56:47.290Z,99499.49
2017-10-08T21:59:14.825Z,99504.27
2017-10-08T22:01:42.335Z,99504.02
2017-10-08T22:04:09.833Z,99505.98
2017-10-08T22:06:37.301Z,99505.84
2017-10-08T22:09:04.800Z,99515.50
2017-10-08T22:11:32.278Z,99508.67
2017-10-08T22:13:59.733Z,99511.96
2017-10-08T22:16:27.241Z,99508.44
2017-10-08T22:18:54.736Z,99507.77
2017-10-08T22:21:22.283Z,99509.09
2017-10-08T22:23:49.812Z,99512.94
2017-10-08T22:26:17.264Z,99513.69
2017-10-08T22:28:44.857Z,99511.72
2017-10-08T22:44:07.396Z,99530.23
2017-10-08T22:46:34.899Z,99541.65
2017-10-08T22:49:02.363Z,99534.22
2017-10-08T22:51:29.858Z,99537.38
2017-10-08T22:53:57.320Z,99551.09
2017-10-08T22:56:24.930Z,99557.66
2017-10-08T22:58:52.463Z,99575.59
2017-10-08T23:01:19.958Z,99548.10
2017-10-08T23:03:47.434Z,99553.22
2017-10-08T23:06:14.914Z,99558.92
2017-10-08T23:08:42.388Z,99557.13
2017-10-08T23:11:09.848Z,99580.11
2017-10-08T23:13:37.404Z,99584.73
2017-10-08T23:16:04.881Z,99575.72
2017-10-08T23:18:32.345Z,99583.78
2017-10-08T23:20:59.807Z,99592.22
2017-10-08T23:26:00.199Z,99599.24
2017-10-08T23:28:27.658Z,99609.48
2017-10-08T23:30:55.113Z,99596.72
2017-10-08T23:33:22.608Z,99610.52
2017-10-08T23:35:50.577Z,99618.24
2017-10-08T23:38:18.045Z,99601.27
2017-10-08T23:40:45.526Z,99604.77
2017-10-08T23:43:12.985Z,99606.94
2017-10-08T23:45:40.432Z,99599.31
2017-10-08T23:48:07.920Z,99595.47
2017-10-08T23:50:35.376Z,99594.63
2017-10-08T23:53:02.849Z,99600.20
2017-10-08T23:55:30.333Z,99600.46
2017-10-08T23:57:57.776Z,99596.48
